Ezine, Turkey
Current Conditions -  °F | °C
As of 10:50 AM on Monday 20 Oct 2014 (Local Time) from LTFD Reporting Station
Clear Clear  
Wind Chill: 61°   Ceiling: Unl
Heat Index: 61°   Visibility: 6mi
Dew Point: 39°   Wind: 15mph
Humidity: 45%   Direction: 80°E
Pressure: 30.21"   Gusts: NA
Location:  39.79°N, 26.33°E
Report Text: LTFD 200750Z 08013KT CAVOK 16/04 Q1023
Loading
Personal Weather Stations






























Interactive Weather Map
Tropical Storm Tracking
New forecast layout! Learn more

10-Day Weather Forecast

Advertisements
Track Severe Weather on mobile